createdAt,value
2022-12-01T00:02:04.279Z,0
2022-12-01T00:16:04.229Z,0
2022-12-01T00:30:04.216Z,0
2022-12-01T00:44:04.288Z,0
2022-12-01T00:58:04.338Z,0
2022-12-01T01:12:04.345Z,0.4
2022-12-01T01:26:04.380Z,0
2022-12-01T01:40:04.405Z,0.4
2022-12-01T01:54:04.413Z,0
2022-12-01T02:08:04.445Z,0
2022-12-01T02:22:04.815Z,0
2022-12-01T02:36:04.860Z,0.8
2022-12-01T02:50:05.015Z,0
2022-12-01T03:04:05.015Z,0.6
2022-12-01T03:18:05.026Z,0
2022-12-01T03:32:05.047Z,0
2022-12-01T03:46:05.090Z,0.6
2022-12-01T04:00:05.064Z,0.6
2022-12-01T04:14:05.038Z,0.4
2022-12-01T04:28:05.040Z,0
2022-12-01T04:42:05.046Z,0
2022-12-01T04:56:05.260Z,0.2
2022-12-01T05:10:05.051Z,0
2022-12-01T05:24:05.067Z,0.2
2022-12-01T05:38:07.942Z,0
2022-12-01T05:52:05.111Z,0
2022-12-01T06:06:05.103Z,0
2022-12-01T06:20:05.103Z,0
2022-12-01T06:35:05.120Z,0
2022-12-01T06:50:05.152Z,0
2022-12-01T07:05:05.139Z,0
2022-12-01T07:21:05.177Z,0
2022-12-01T07:36:05.215Z,0
2022-12-01T07:51:05.176Z,0
2022-12-01T08:06:05.223Z,0
2022-12-01T08:21:05.243Z,0
2022-12-01T08:36:05.275Z,0
2022-12-01T08:51:05.291Z,0
2022-12-01T09:06:05.251Z,0
2022-12-01T09:21:05.646Z,0
2022-12-01T09:36:05.613Z,0
2022-12-01T09:51:05.622Z,0.9
2022-12-01T10:06:28.341Z,0.8
2022-12-01T10:21:05.845Z,0
2022-12-01T10:36:05.902Z,0
2022-12-01T10:42:48.477Z,0.4
2022-12-01T10:57:48.521Z,0
2022-12-01T11:12:48.644Z,0.6
2022-12-01T11:27:48.713Z,0.6
2022-12-01T11:42:48.768Z,0.8
2022-12-01T11:57:48.827Z,0.2
2022-12-01T12:12:49.012Z,0.2
2022-12-01T12:27:49.071Z,0.8
2022-12-01T12:42:49.584Z,0
2022-12-01T12:57:49.483Z,0.2
2022-12-01T13:12:49.478Z,0
2022-12-01T13:27:49.591Z,0
2022-12-01T13:42:49.608Z,0
2022-12-01T13:57:49.572Z,0
2022-12-01T14:12:49.593Z,0
2022-12-01T14:27:49.782Z,0
2022-12-01T14:42:49.628Z,0
2022-12-01T14:57:49.631Z,0
2022-12-01T15:12:49.709Z,0
2022-12-01T15:28:49.718Z,0
2022-12-01T15:43:49.669Z,0
2022-12-01T15:58:49.737Z,0.6
2022-12-01T16:13:49.781Z,0
2022-12-01T16:28:49.791Z,0
2022-12-01T16:42:49.816Z,0
2022-12-01T16:56:49.889Z,0
2022-12-01T17:10:49.829Z,0
2022-12-01T17:24:50.369Z,0
2022-12-01T17:38:49.973Z,0
2022-12-01T17:52:49.989Z,0.2
2022-12-01T18:06:53.925Z,0.9
2022-12-01T18:20:50.343Z,0.8
2022-12-01T18:34:50.464Z,0
2022-12-01T18:48:50.258Z,0
2022-12-01T19:02:50.273Z,0
2022-12-01T19:16:50.314Z,0
2022-12-01T19:30:50.251Z,0
2022-12-01T19:44:50.673Z,0
2022-12-01T19:58:50.266Z,0
2022-12-01T20:12:50.338Z,0
2022-12-01T20:26:50.299Z,0.2
2022-12-01T20:40:50.280Z,0.4
2022-12-01T20:54:50.530Z,0.6
2022-12-01T21:08:50.288Z,1.3
2022-12-01T21:23:50.454Z,1.9
2022-12-01T21:37:50.422Z,1.8
2022-12-01T21:51:50.491Z,0.6
2022-12-01T22:06:07.402Z,1.4
2022-12-01T22:19:50.498Z,1.7
2022-12-01T22:33:50.490Z,1.2
2022-12-01T22:47:50.558Z,1.6
2022-12-01T23:01:50.513Z,1.2
2022-12-01T23:15:50.504Z,0.8
2022-12-01T23:29:50.586Z,1.0
2022-12-01T23:43:50.810Z,1.3
2022-12-01T23:57:50.816Z,1.0
